createdAt,value
2022-11-25T00:01:29.019Z,2.03
2022-11-25T00:03:57.009Z,3.08
2022-11-25T00:06:25.952Z,2.03
2022-11-25T00:08:57.347Z,2.00
2022-11-25T00:11:24.511Z,2.40
2022-11-25T00:13:51.630Z,2.50
2022-11-25T00:16:20.246Z,2.65
2022-11-25T00:18:48.656Z,2.10
2022-11-25T00:21:17.089Z,2.38
2022-11-25T00:23:44.236Z,2.20
2022-11-25T00:26:15.348Z,2.55
2022-11-25T00:28:43.972Z,1.85
2022-11-25T00:31:18.661Z,3.17
2022-11-25T00:33:46.336Z,2.95
2022-11-25T00:36:16.565Z,2.35
2022-11-25T00:38:44.181Z,2.88
2022-11-25T00:41:30.189Z,3.15
2022-11-25T00:44:16.214Z,2.30
2022-11-25T00:46:43.419Z,2.85
2022-11-25T00:49:10.506Z,2.28
2022-11-25T00:51:37.689Z,2.15
2022-11-25T00:54:04.842Z,2.28
2022-11-25T00:56:31.946Z,2.03
2022-11-25T00:58:59.080Z,1.92
2022-11-25T01:01:26.304Z,2.35
2022-11-25T01:03:54.098Z,1.85
2022-11-25T01:06:21.969Z,1.70
2022-11-25T01:08:49.134Z,2.33
2022-11-25T01:11:18.182Z,2.45
2022-11-25T01:13:45.563Z,2.40
2022-11-25T01:16:15.647Z,2.15
2022-11-25T01:18:43.519Z,2.50
2022-11-25T01:21:14.936Z,2.20
2022-11-25T01:23:42.377Z,2.55
2022-11-25T01:26:14.076Z,1.92
2022-11-25T01:28:41.444Z,2.00
2022-11-25T01:31:08.669Z,2.13
2022-11-25T01:33:36.336Z,2.00
2022-11-25T01:36:03.409Z,1.80
2022-11-25T01:38:31.031Z,2.20
2022-11-25T01:40:58.495Z,2.78
2022-11-25T01:43:26.166Z,2.67
2022-11-25T01:45:54.651Z,2.05
2022-11-25T01:48:38.372Z,2.50
2022-11-25T01:51:05.817Z,1.63
2022-11-25T01:53:33.737Z,2.30
2022-11-25T01:56:02.742Z,1.73
2022-11-25T01:58:31.278Z,1.90
2022-11-25T02:00:58.681Z,2.20
2022-11-25T02:03:30.344Z,2.03
2022-11-25T02:06:17.802Z,2.20
2022-11-25T02:08:47.457Z,1.80
2022-11-25T02:11:15.451Z,2.25
2022-11-25T02:13:43.090Z,2.33
2022-11-25T02:16:10.377Z,2.28
2022-11-25T02:18:37.567Z,2.03
2022-11-25T02:21:04.816Z,1.83
2022-11-25T02:23:43.678Z,2.58
2022-11-25T02:26:10.860Z,1.92
2022-11-25T02:28:38.102Z,2.10
2022-11-25T02:31:05.437Z,2.20
2022-11-25T02:33:33.024Z,1.60
2022-11-25T02:36:01.918Z,1.80
2022-11-25T02:40:59.367Z,2.30
2022-11-25T02:43:27.103Z,2.20
2022-11-25T02:45:59.597Z,2.40
2022-11-25T02:48:52.710Z,2.15
2022-11-25T02:51:16.360Z,2.08
2022-11-25T02:53:43.475Z,2.20
2022-11-25T02:56:11.265Z,2.88
2022-11-25T02:58:38.375Z,2.45
2022-11-25T03:01:05.575Z,1.77
2022-11-25T03:03:32.838Z,1.80
2022-11-25T03:05:59.952Z,2.80
2022-11-25T03:08:27.084Z,1.70
2022-11-25T03:10:54.183Z,2.13
2022-11-25T03:13:21.600Z,2.50
2022-11-25T03:15:48.731Z,3.67
2022-11-25T03:18:15.838Z,2.15
2022-11-25T03:20:42.932Z,1.77
2022-11-25T03:23:10.072Z,1.92
2022-11-25T03:25:37.215Z,2.10
2022-11-25T03:28:04.952Z,2.30
2022-11-25T03:30:32.119Z,2.08
2022-11-25T03:32:59.266Z,2.28
2022-11-25T03:35:26.629Z,1.98
2022-11-25T03:37:53.711Z,2.22
2022-11-25T03:40:20.947Z,2.47
2022-11-25T03:42:48.059Z,1.38
2022-11-25T03:45:16.017Z,1.90
2022-11-25T03:47:43.748Z,1.10
2022-11-25T03:50:11.712Z,2.00
2022-11-25T03:52:39.245Z,1.70
2022-11-25T03:55:06.675Z,1.75
2022-11-25T03:57:34.135Z,1.92
2022-11-25T04:00:01.972Z,2.00
2022-11-25T04:02:29.298Z,1.50
2022-11-25T04:04:56.539Z,1.50
2022-11-25T04:07:23.683Z,1.48
2022-11-25T04:09:50.902Z,1.33
2022-11-25T04:12:36.806Z,1.30
2022-11-25T04:15:04.047Z,1.27
2022-11-25T04:17:31.112Z,1.35
2022-11-25T04:19:58.239Z,1.25
2022-11-25T04:22:25.395Z,0.68
2022-11-25T04:24:52.539Z,1.23
2022-11-25T04:27:20.538Z,1.45
2022-11-25T04:29:47.863Z,1.40
2022-11-25T04:32:14.992Z,1.33
2022-11-25T04:34:42.106Z,1.38
2022-11-25T04:37:09.211Z,1.30
2022-11-25T04:39:36.319Z,0.98
2022-11-25T04:42:21.932Z,0.90
2022-11-25T04:45:07.614Z,0.85
2022-11-25T04:47:36.159Z,1.10
2022-11-25T04:50:03.506Z,0.88
2022-11-25T04:52:30.691Z,1.15
2022-11-25T04:54:57.786Z,0.85
2022-11-25T04:57:24.942Z,0.85
2022-11-25T04:59:52.020Z,1.08
2022-11-25T05:02:23.896Z,1.67
2022-11-25T05:04:53.556Z,0.68
2022-11-25T05:07:21.823Z,0.90
2022-11-25T05:09:49.359Z,0.90
2022-11-25T05:12:17.922Z,1.10
2022-11-25T05:14:45.445Z,0.90
2022-11-25T05:17:16.374Z,1.05
2022-11-25T05:19:44.162Z,0.80
2022-11-25T05:22:12.077Z,1.20
2022-11-25T05:24:39.177Z,1.00
2022-11-25T05:27:06.632Z,0.88
2022-11-25T05:29:33.835Z,0.85
2022-11-25T05:32:01.123Z,0.80
2022-11-25T05:34:28.467Z,0.93
2022-11-25T05:36:55.669Z,1.08
2022-11-25T05:39:22.768Z,0.90
2022-11-25T05:41:49.851Z,0.70
2022-11-25T05:44:22.462Z,0.95
2022-11-25T05:46:50.179Z,1.00
2022-11-25T05:49:17.658Z,1.00
2022-11-25T05:51:44.705Z,0.70
2022-11-25T05:54:11.811Z,0.98
2022-11-25T05:56:38.997Z,1.25
2022-11-25T05:59:06.215Z,1.10
2022-11-25T06:01:33.746Z,1.10
2022-11-25T06:04:04.668Z,1.00
2022-11-25T06:06:32.339Z,1.15
2022-11-25T06:08:59.771Z,1.08
2022-11-25T06:11:27.116Z,1.13
2022-11-25T06:13:54.256Z,1.35
2022-11-25T06:16:23.063Z,1.10
2022-11-25T06:18:50.258Z,1.20
2022-11-25T06:21:17.450Z,1.30
2022-11-25T06:23:47.838Z,1.50
2022-11-25T06:26:16.122Z,1.20
2022-11-25T06:28:43.591Z,1.33
2022-11-25T06:31:12.065Z,1.13
2022-11-25T06:33:39.239Z,1.67
2022-11-25T06:36:07.264Z,1.08
2022-11-25T06:38:34.519Z,1.48
2022-11-25T06:41:05.473Z,1.27
2022-11-25T06:43:33.091Z,1.58
2022-11-25T06:46:07.450Z,1.80
2022-11-25T06:48:34.725Z,1.23
2022-11-25T06:51:05.322Z,1.70
2022-11-25T06:53:33.074Z,1.30
2022-11-25T06:56:09.710Z,1.65
2022-11-25T06:58:37.634Z,2.00
2022-11-25T07:01:04.855Z,2.00
2022-11-25T07:03:32.069Z,1.73
2022-11-25T07:05:59.779Z,1.42
2022-11-25T07:08:33.545Z,2.03
2022-11-25T07:11:05.458Z,2.55
2022-11-25T07:13:32.837Z,2.45
2022-11-25T07:16:03.842Z,1.90
2022-11-25T07:18:32.086Z,1.80
2022-11-25T07:21:03.406Z,2.40
2022-11-25T07:23:30.651Z,2.20
2022-11-25T07:26:02.036Z,2.40
2022-11-25T07:28:29.125Z,2.30
2022-11-25T07:33:43.720Z,3.03
2022-11-25T07:36:11.840Z,2.28
2022-11-25T07:38:43.575Z,2.67
2022-11-25T07:41:15.166Z,2.60
2022-11-25T07:43:45.045Z,2.13
2022-11-25T07:46:26.758Z,2.58
2022-11-25T07:48:55.818Z,2.20
2022-11-25T07:51:25.075Z,3.05
2022-11-25T07:53:55.771Z,2.15
2022-11-25T07:56:23.011Z,2.83
2022-11-25T07:58:50.219Z,2.70
2022-11-25T08:01:18.818Z,3.28
2022-11-25T08:03:47.128Z,2.40
2022-11-25T08:06:15.353Z,2.65
2022-11-25T08:08:43.243Z,2.97
2022-11-25T08:11:14.527Z,2.78
2022-11-25T08:13:42.070Z,2.20
2022-11-25T08:16:09.654Z,2.40
2022-11-25T08:18:36.913Z,2.05
2022-11-25T08:21:05.039Z,2.47
2022-11-25T08:23:32.919Z,2.38
2022-11-25T08:26:04.140Z,2.28
2022-11-25T08:28:36.718Z,2.30
2022-11-25T08:31:07.970Z,2.40
2022-11-25T08:33:35.440Z,2.47
2022-11-25T08:36:02.693Z,2.30
2022-11-25T08:38:30.355Z,2.63
2022-11-25T08:41:03.720Z,2.55
2022-11-25T08:43:30.948Z,2.30
2022-11-25T08:45:58.148Z,2.58
2022-11-25T08:48:25.404Z,2.53
2022-11-25T08:50:53.992Z,2.33
2022-11-25T08:53:21.784Z,2.17
2022-11-25T08:55:49.516Z,2.65
2022-11-25T08:58:16.797Z,2.35
2022-11-25T09:00:45.145Z,2.85
2022-11-25T09:03:12.812Z,2.42
2022-11-25T09:05:41.684Z,2.35
2022-11-25T09:08:08.996Z,1.90
2022-11-25T09:10:36.764Z,2.22
2022-11-25T09:13:04.156Z,2.30
2022-11-25T09:15:31.629Z,2.35
2022-11-25T09:18:03.176Z,2.47
2022-11-25T09:20:30.298Z,2.42
2022-11-25T09:22:59.394Z,2.03
2022-11-25T09:25:27.464Z,2.38
2022-11-25T09:27:54.620Z,2.35
2022-11-25T09:30:21.867Z,2.80
2022-11-25T09:32:49.859Z,2.30
2022-11-25T09:35:17.350Z,2.00
2022-11-25T09:37:44.578Z,2.40
2022-11-25T09:40:18.649Z,2.88
2022-11-25T09:43:09.118Z,2.50
2022-11-25T09:46:13.743Z,2.30
2022-11-25T09:48:47.136Z,2.30
2022-11-25T09:51:25.856Z,2.85
2022-11-25T09:53:52.924Z,2.40
2022-11-25T09:56:36.552Z,2.30
2022-11-25T09:59:08.192Z,2.33
2022-11-25T10:01:40.347Z,2.53
2022-11-25T10:04:12.212Z,2.40
2022-11-25T10:06:44.317Z,2.50
2022-11-25T10:09:13.004Z,2.42
2022-11-25T10:11:46.283Z,2.50
2022-11-25T10:14:20.871Z,2.80
2022-11-25T10:16:51.422Z,2.50
2022-11-25T10:19:25.039Z,2.50
2022-11-25T10:21:52.514Z,3.00
2022-11-25T10:24:24.846Z,2.58
2022-11-25T10:26:55.480Z,2.60
2022-11-25T10:29:27.560Z,2.42
2022-11-25T10:32:19.571Z,2.80
2022-11-25T10:34:49.297Z,2.55
2022-11-25T10:37:23.861Z,2.72
2022-11-25T10:39:51.074Z,2.50
2022-11-25T10:42:25.955Z,2.50
2022-11-25T10:47:31.593Z,2.72
2022-11-25T10:50:01.562Z,2.60
2022-11-25T10:52:29.887Z,2.95
2022-11-25T10:55:17.257Z,2.92
2022-11-25T10:57:55.168Z,2.70
2022-11-25T11:00:31.680Z,3.65
2022-11-25T11:02:59.533Z,2.67
2022-11-25T11:05:29.627Z,3.17
2022-11-25T11:08:18.172Z,3.00
2022-11-25T11:10:45.810Z,3.08
2022-11-25T11:13:22.440Z,3.05
2022-11-25T11:15:49.995Z,2.83
2022-11-25T11:18:20.043Z,2.72
2022-11-25T11:20:48.057Z,2.47
2022-11-25T11:23:15.632Z,3.05
2022-11-25T11:25:44.394Z,2.88
2022-11-25T11:30:38.656Z,2.13
2022-11-25T11:33:07.651Z,2.83
2022-11-25T11:35:40.408Z,2.22
2022-11-25T11:38:17.695Z,3.05
2022-11-25T11:40:49.611Z,2.80
2022-11-25T11:43:17.941Z,2.13
2022-11-25T11:46:03.188Z,2.50
2022-11-25T11:48:38.749Z,2.30
2022-11-25T11:51:08.800Z,1.98
2022-11-25T11:53:45.030Z,2.38
2022-11-25T11:59:11.186Z,2.00
2022-11-25T12:02:10.673Z,2.30
2022-11-25T12:04:41.802Z,1.73
2022-11-25T12:07:16.658Z,1.75
2022-11-25T12:09:47.205Z,1.88
2022-11-25T12:12:16.557Z,2.22
2022-11-25T12:14:45.999Z,2.00
2022-11-25T12:17:17.991Z,1.85
2022-11-25T12:20:05.366Z,1.60
2022-11-25T12:22:43.146Z,1.70
2022-11-25T12:25:16.848Z,1.75
2022-11-25T12:28:10.063Z,1.83
2022-11-25T12:31:00.553Z,1.60
2022-11-25T12:33:40.184Z,1.70
2022-11-25T12:36:19.226Z,1.77
2022-11-25T12:38:48.100Z,2.33
2022-11-25T12:41:15.241Z,1.63
2022-11-25T12:43:48.552Z,1.48
2022-11-25T12:46:27.517Z,1.80
2022-11-25T12:48:55.844Z,1.90
2022-11-25T12:51:32.287Z,1.95
2022-11-25T12:54:22.445Z,1.42
2022-11-25T12:57:07.939Z,1.60
2022-11-25T13:00:11.317Z,1.67
2022-11-25T13:02:41.164Z,1.55
2022-11-25T13:05:39.041Z,1.88
2022-11-25T13:08:21.741Z,2.15
2022-11-25T13:10:57.660Z,1.17
2022-11-25T13:13:34.395Z,1.50
2022-11-25T13:16:02.739Z,1.33
2022-11-25T13:18:32.743Z,1.45
2022-11-25T13:21:07.007Z,1.90
2022-11-25T13:23:52.929Z,1.10
2022-11-25T13:26:29.419Z,1.73
2022-11-25T13:28:56.949Z,1.85
2022-11-25T13:31:25.829Z,1.58
2022-11-25T13:33:59.328Z,1.50
2022-11-25T13:36:43.524Z,1.85
2022-11-25T13:39:14.937Z,2.05
2022-11-25T13:41:49.429Z,2.80
2022-11-25T13:44:37.132Z,1.70
2022-11-25T13:47:24.099Z,1.70
2022-11-25T13:49:53.397Z,1.25
2022-11-25T13:52:26.362Z,1.85
2022-11-25T13:54:54.686Z,1.88
2022-11-25T13:57:32.698Z,2.10
2022-11-25T14:00:01.404Z,1.85
2022-11-25T14:04:58.922Z,1.85
2022-11-25T14:07:29.281Z,1.90
2022-11-25T14:10:02.690Z,1.67
2022-11-25T14:12:37.013Z,1.63
2022-11-25T14:15:23.044Z,1.90
2022-11-25T14:18:08.686Z,1.77
2022-11-25T14:20:35.807Z,1.95
2022-11-25T14:23:27.292Z,2.03
2022-11-25T14:25:55.478Z,2.10
2022-11-25T14:28:27.488Z,2.28
2022-11-25T14:30:59.497Z,1.90
2022-11-25T14:33:31.520Z,1.88
2022-11-25T14:36:02.297Z,2.40
2022-11-25T14:38:49.737Z,1.95
2022-11-25T14:41:21.419Z,1.85
2022-11-25T14:43:51.896Z,2.03
2022-11-25T14:46:23.373Z,2.00
2022-11-25T14:48:54.955Z,2.67
2022-11-25T14:51:22.506Z,2.13
2022-11-25T14:53:50.343Z,2.00
2022-11-25T14:56:28.235Z,1.70
2022-11-25T14:58:56.348Z,2.15
2022-11-25T15:01:23.436Z,2.17
2022-11-25T15:03:51.777Z,2.03
2022-11-25T15:06:21.041Z,2.22
2022-11-25T15:08:58.876Z,3.20
2022-11-25T15:11:28.097Z,2.72
2022-11-25T15:14:00.811Z,1.80
2022-11-25T15:16:43.595Z,2.28
2022-11-25T15:19:21.420Z,2.78
2022-11-25T15:22:21.273Z,2.80
2022-11-25T15:24:51.613Z,2.60
2022-11-25T15:27:25.275Z,3.58
2022-11-25T15:30:02.365Z,2.97
2022-11-25T15:32:31.570Z,2.88
2022-11-25T15:35:01.218Z,2.90
2022-11-25T15:37:28.901Z,2.40
2022-11-25T15:40:14.701Z,2.47
2022-11-25T15:42:42.994Z,2.45
2022-11-25T15:45:12.232Z,2.90
2022-11-25T15:47:39.687Z,4.50
2022-11-25T15:50:26.263Z,3.83
2022-11-25T15:52:55.235Z,2.80
2022-11-25T15:55:40.755Z,2.95
2022-11-25T15:58:21.823Z,3.88
2022-11-25T16:03:20.688Z,3.60
2022-11-25T16:05:57.536Z,3.97
2022-11-25T16:08:28.692Z,3.63
2022-11-25T16:10:57.124Z,4.10
2022-11-25T16:13:45.451Z,3.80
2022-11-25T16:16:12.726Z,3.25
2022-11-25T16:18:42.837Z,3.38
2022-11-25T16:21:14.533Z,4.50
2022-11-25T16:23:44.599Z,4.00
2022-11-25T16:26:19.534Z,4.50
2022-11-25T16:28:57.008Z,5.25
2022-11-25T16:31:37.642Z,7.65
2022-11-25T16:34:15.670Z,7.10
2022-11-25T16:36:43.089Z,8.68
2022-11-25T16:39:10.294Z,6.53
2022-11-25T16:41:48.451Z,5.78
2022-11-25T16:44:18.587Z,5.97
2022-11-25T16:46:47.134Z,5.70
2022-11-25T16:49:15.649Z,8.05
2022-11-25T16:51:43.171Z,7.20
2022-11-25T16:54:10.732Z,7.05
2022-11-25T16:56:42.050Z,6.97
2022-11-25T16:59:30.183Z,7.88
2022-11-25T17:01:57.818Z,6.88
2022-11-25T17:04:25.268Z,6.13
2022-11-25T17:07:24.200Z,12.13
2022-11-25T17:09:39.951Z,7.53
2022-11-25T17:12:10.875Z,8.63
2022-11-25T17:14:38.515Z,8.63
2022-11-25T17:17:05.798Z,15.57
2022-11-25T17:19:33.135Z,9.18
2022-11-25T17:22:00.384Z,9.25
2022-11-25T17:24:27.511Z,7.28
2022-11-25T17:26:59.717Z,8.15
2022-11-25T17:29:38.003Z,8.05
2022-11-25T17:35:52.893Z,8.07
2022-11-25T17:38:20.968Z,9.77
2022-11-25T17:40:50.504Z,11.27
2022-11-25T17:43:38.659Z,9.55
2022-11-25T17:46:05.952Z,8.68
2022-11-25T17:48:33.221Z,8.82
2022-11-25T17:51:05.944Z,7.53
2022-11-25T17:53:37.833Z,7.85
2022-11-25T17:56:18.879Z,7.30
2022-11-25T17:58:46.210Z,7.35
2022-11-25T18:01:13.617Z,6.85
2022-11-25T18:03:41.005Z,7.55
2022-11-25T18:06:08.261Z,6.50
2022-11-25T18:08:35.469Z,7.20
2022-11-25T18:11:04.140Z,5.80
2022-11-25T18:13:32.804Z,6.30
2022-11-25T18:15:59.960Z,6.32
2022-11-25T18:18:27.101Z,6.15
2022-11-25T18:20:55.911Z,4.28
2022-11-25T18:23:23.170Z,4.97
2022-11-25T18:25:50.708Z,5.18
2022-11-25T18:28:19.179Z,4.50
2022-11-25T18:30:46.864Z,4.25
2022-11-25T18:33:14.853Z,4.28
2022-11-25T18:35:42.410Z,6.53
2022-11-25T18:38:09.656Z,5.13
2022-11-25T18:40:40.164Z,6.05
2022-11-25T18:43:08.072Z,6.32
2022-11-25T18:45:39.402Z,5.70
2022-11-25T18:48:14.220Z,7.28
2022-11-25T18:50:41.341Z,8.02
2022-11-25T18:53:08.631Z,5.10
2022-11-25T18:55:35.915Z,6.70
2022-11-25T18:58:03.414Z,6.93
2022-11-25T19:00:33.738Z,7.53
2022-11-25T19:03:01.671Z,7.88
2022-11-25T19:05:33.307Z,8.15
2022-11-25T19:08:00.553Z,8.63
2022-11-25T19:10:33.213Z,7.55
2022-11-25T19:13:03.723Z,7.55
2022-11-25T19:15:30.831Z,6.93
2022-11-25T19:18:00.112Z,8.10
2022-11-25T19:20:28.467Z,8.63
2022-11-25T19:23:01.196Z,9.02
2022-11-25T19:25:28.746Z,8.13
2022-11-25T19:27:57.990Z,6.15
2022-11-25T19:30:26.749Z,7.68
2022-11-25T19:32:55.917Z,7.97
2022-11-25T19:35:25.392Z,7.20
2022-11-25T19:37:52.569Z,7.63
2022-11-25T19:40:22.286Z,9.20
2022-11-25T19:42:49.480Z,6.20
2022-11-25T19:45:18.097Z,7.05
2022-11-25T19:47:45.709Z,5.80
2022-11-25T19:50:20.276Z,5.68
2022-11-25T19:52:47.598Z,6.78
2022-11-25T19:55:16.028Z,6.47
2022-11-25T19:57:43.347Z,6.88
2022-11-25T20:00:11.762Z,5.80
2022-11-25T20:02:41.319Z,6.35
2022-11-25T20:05:10.116Z,7.85
2022-11-25T20:07:38.265Z,7.53
2022-11-25T20:13:35.705Z,7.95
2022-11-25T20:16:03.424Z,7.45
2022-11-25T20:18:30.729Z,7.43
2022-11-25T20:21:02.767Z,9.38
2022-11-25T20:23:41.737Z,12.25
2022-11-25T20:26:27.128Z,11.95
2022-11-25T20:28:54.595Z,14.30
2022-11-25T20:31:24.283Z,15.00
2022-11-25T20:33:55.043Z,16.45
2022-11-25T20:36:43.258Z,11.40
2022-11-25T20:39:16.636Z,12.07
2022-11-25T20:41:47.066Z,11.32
2022-11-25T20:44:14.962Z,11.77
2022-11-25T20:46:52.857Z,10.45
2022-11-25T20:49:28.036Z,9.30
2022-11-25T20:54:38.656Z,8.57
2022-11-25T20:57:13.201Z,8.68
2022-11-25T20:59:44.700Z,7.88
2022-11-25T21:02:15.099Z,7.20
2022-11-25T21:04:42.824Z,7.15
2022-11-25T21:07:20.963Z,7.22
2022-11-25T21:09:52.458Z,6.25
2022-11-25T21:12:19.882Z,6.97
2022-11-25T21:14:47.581Z,7.28
2022-11-25T21:17:15.040Z,6.25
2022-11-25T21:19:42.432Z,5.85
2022-11-25T21:22:13.694Z,6.47
2022-11-25T21:24:42.228Z,5.60
2022-11-25T21:27:19.326Z,5.32
2022-11-25T21:29:47.763Z,5.35
2022-11-25T21:32:25.805Z,6.32
2022-11-25T21:34:57.664Z,6.72
2022-11-25T21:37:40.965Z,6.22
2022-11-25T21:40:17.639Z,6.85
2022-11-25T21:42:45.224Z,5.68
2022-11-25T21:45:20.284Z,6.18
2022-11-25T21:47:47.838Z,5.70
2022-11-25T21:50:18.085Z,7.43
2022-11-25T21:52:46.318Z,5.55
2022-11-25T21:55:14.161Z,5.03
2022-11-25T21:57:41.598Z,5.75
2022-11-25T22:00:20.454Z,5.50
2022-11-25T22:02:47.865Z,6.30
2022-11-25T22:05:18.835Z,5.07
2022-11-25T22:07:46.284Z,6.20
2022-11-25T22:10:14.573Z,4.93
2022-11-25T22:12:42.976Z,5.07
2022-11-25T22:15:13.913Z,3.85
2022-11-25T22:17:41.167Z,4.55
2022-11-25T22:20:22.678Z,5.03
2022-11-25T22:22:50.888Z,4.60
2022-11-25T22:25:18.081Z,4.80
2022-11-25T22:27:45.397Z,4.55
2022-11-25T22:30:16.796Z,5.72
2022-11-25T22:32:44.996Z,4.50
2022-11-25T22:35:19.727Z,3.55
2022-11-25T22:37:51.957Z,4.00
2022-11-25T22:42:50.780Z,3.58
2022-11-25T22:45:44.342Z,4.45
2022-11-25T22:48:13.741Z,3.28
2022-11-25T22:50:40.959Z,3.78
2022-11-25T22:53:13.161Z,3.67
2022-11-25T22:55:40.280Z,3.63
2022-11-25T22:58:07.572Z,5.20
2022-11-25T23:00:36.274Z,3.28
2022-11-25T23:03:05.388Z,3.72
2022-11-25T23:08:01.813Z,3.53
2022-11-25T23:10:30.325Z,3.35
2022-11-25T23:12:57.652Z,3.35
2022-11-25T23:15:25.157Z,3.55
2022-11-25T23:17:56.500Z,3.40
2022-11-25T23:20:31.131Z,3.50
2022-11-25T23:22:58.970Z,3.33
2022-11-25T23:25:26.091Z,2.92
2022-11-25T23:27:53.291Z,2.65
2022-11-25T23:30:21.749Z,2.75
2022-11-25T23:32:50.001Z,2.65
2022-11-25T23:35:18.533Z,2.88
2022-11-25T23:37:48.280Z,3.10
2022-11-25T23:40:18.584Z,3.33
2022-11-25T23:42:46.069Z,3.50
2022-11-25T23:45:14.762Z,3.65
2022-11-25T23:47:42.524Z,3.65
2022-11-25T23:50:15.627Z,3.90
2022-11-25T23:52:43.016Z,3.70
2022-11-25T23:55:13.938Z,5.07
2022-11-25T23:57:48.332Z,3.88
